createdAt,value
2022-10-07T00:01:02.370Z,3.57
2022-10-07T00:03:29.981Z,3.57
2022-10-07T00:06:03.348Z,3.70
2022-10-07T00:08:30.986Z,4.47
2022-10-07T00:10:58.424Z,3.60
2022-10-07T00:13:25.975Z,3.47
2022-10-07T00:15:53.257Z,3.33
2022-10-07T00:18:20.660Z,3.53
2022-10-07T00:20:47.952Z,3.87
2022-10-07T00:23:15.252Z,3.90
2022-10-07T00:25:42.540Z,3.03
2022-10-07T00:28:09.985Z,3.17
2022-10-07T00:30:37.413Z,3.80
2022-10-07T00:33:04.828Z,3.20
2022-10-07T00:35:34.837Z,3.80
2022-10-07T00:38:02.142Z,2.87
2022-10-07T00:40:29.524Z,3.87
2022-10-07T00:42:56.849Z,4.10
2022-10-07T00:45:24.215Z,3.33
2022-10-07T00:47:51.639Z,3.83
2022-10-07T00:50:26.016Z,3.67
2022-10-07T00:52:57.605Z,3.20
2022-10-07T00:55:27.195Z,4.80
2022-10-07T00:57:57.305Z,3.50
2022-10-07T01:00:24.722Z,5.00
2022-10-07T01:02:52.510Z,4.13
2022-10-07T01:05:20.601Z,4.07
2022-10-07T01:07:48.791Z,4.33
2022-10-07T01:10:19.916Z,4.77
2022-10-07T01:12:54.374Z,4.90
2022-10-07T01:15:24.878Z,4.03
2022-10-07T01:18:31.291Z,4.60
2022-10-07T01:21:06.814Z,3.70
2022-10-07T01:24:07.085Z,4.40
2022-10-07T01:27:01.950Z,3.90
2022-10-07T01:29:56.370Z,2.80
2022-10-07T01:32:38.095Z,3.20
2022-10-07T01:35:15.414Z,2.93
2022-10-07T01:37:47.213Z,3.53
2022-10-07T01:40:28.441Z,4.00
2022-10-07T01:42:56.360Z,3.97
2022-10-07T01:45:26.589Z,4.47
2022-10-07T01:47:53.960Z,4.40
2022-10-07T01:50:25.455Z,4.17
2022-10-07T01:53:12.747Z,4.30
2022-10-07T01:56:01.886Z,3.00
2022-10-07T01:58:51.492Z,4.20
2022-10-07T02:01:57.243Z,3.73
2022-10-07T02:04:31.106Z,4.00
2022-10-07T02:07:12.076Z,4.77
2022-10-07T02:09:46.785Z,4.97
2022-10-07T02:12:35.264Z,3.97
2022-10-07T02:15:20.037Z,4.00
2022-10-07T02:17:50.360Z,4.43
2022-10-07T02:20:18.811Z,4.30
2022-10-07T02:22:47.641Z,4.40
2022-10-07T02:25:16.389Z,4.07
2022-10-07T02:27:46.244Z,4.20
2022-10-07T02:30:16.452Z,4.77
2022-10-07T02:32:56.720Z,4.00
2022-10-07T02:35:47.613Z,3.53
2022-10-07T02:38:17.890Z,4.67
2022-10-07T02:40:52.266Z,6.53
2022-10-07T02:43:36.338Z,3.90
2022-10-07T02:46:11.875Z,3.73
2022-10-07T02:48:56.309Z,3.47
2022-10-07T02:51:33.944Z,3.40
2022-10-07T02:54:04.348Z,4.03
2022-10-07T02:56:33.242Z,2.77
2022-10-07T02:59:01.336Z,3.97
2022-10-07T03:01:31.997Z,3.53
2022-10-07T03:03:59.645Z,3.90
2022-10-07T03:06:29.566Z,3.40
2022-10-07T03:09:00.224Z,3.50
2022-10-07T03:11:27.572Z,3.10
2022-10-07T03:13:55.029Z,4.00
2022-10-07T03:16:22.601Z,3.87
2022-10-07T03:18:51.173Z,3.50
2022-10-07T03:21:26.499Z,4.00
2022-10-07T03:23:56.090Z,3.03
2022-10-07T03:26:28.732Z,3.50
2022-10-07T03:28:56.233Z,3.47
2022-10-07T03:31:25.329Z,3.20
2022-10-07T03:33:56.878Z,3.43
2022-10-07T03:36:26.483Z,3.23
2022-10-07T03:38:55.611Z,4.60
2022-10-07T03:41:24.302Z,4.00
2022-10-07T03:43:57.332Z,4.00
2022-10-07T03:46:25.679Z,2.90
2022-10-07T03:48:53.532Z,2.90
2022-10-07T03:51:21.027Z,3.30
2022-10-07T03:53:48.705Z,3.67
2022-10-07T03:56:16.696Z,5.60
2022-10-07T03:58:44.633Z,4.73
2022-10-07T04:01:15.128Z,3.73
2022-10-07T04:03:47.945Z,2.97
2022-10-07T04:06:15.643Z,2.90
2022-10-07T04:08:44.673Z,4.80
2022-10-07T04:11:12.472Z,4.57
2022-10-07T04:13:42.003Z,3.83
2022-10-07T04:16:11.008Z,5.57
2022-10-07T04:18:39.237Z,4.13
2022-10-07T04:21:08.116Z,3.20
2022-10-07T04:23:37.092Z,3.90
2022-10-07T04:26:09.475Z,4.07
2022-10-07T04:28:38.705Z,3.90
2022-10-07T04:31:11.234Z,3.50
2022-10-07T04:33:43.256Z,4.00
2022-10-07T04:36:13.638Z,5.73
2022-10-07T04:38:52.061Z,4.70
2022-10-07T04:41:25.144Z,4.37
2022-10-07T04:43:57.598Z,4.63
2022-10-07T04:46:28.342Z,3.83
2022-10-07T04:49:01.364Z,4.50
2022-10-07T04:51:31.086Z,3.20
2022-10-07T04:54:00.751Z,4.40
2022-10-07T04:56:40.977Z,3.60
2022-10-07T04:59:11.595Z,3.40
2022-10-07T05:01:40.124Z,3.73
2022-10-07T05:04:10.553Z,3.70
2022-10-07T05:06:38.069Z,3.50
2022-10-07T05:09:05.493Z,3.53
2022-10-07T05:11:37.718Z,3.03
2022-10-07T05:14:13.376Z,3.17
2022-10-07T05:16:42.498Z,4.03
2022-10-07T05:19:10.506Z,4.07
2022-10-07T05:21:38.488Z,4.07
2022-10-07T05:24:05.865Z,4.30
2022-10-07T05:26:36.310Z,4.57
2022-10-07T05:29:06.873Z,5.10
2022-10-07T05:31:39.040Z,4.50
2022-10-07T05:34:08.079Z,4.63
2022-10-07T05:36:36.434Z,4.53
2022-10-07T05:39:05.831Z,4.10
2022-10-07T05:41:45.741Z,4.20
2022-10-07T05:44:17.277Z,3.50
2022-10-07T05:46:44.968Z,4.10
2022-10-07T05:49:13.564Z,3.60
2022-10-07T05:51:41.736Z,5.00
2022-10-07T05:54:09.323Z,5.53
2022-10-07T05:56:40.895Z,3.90
2022-10-07T05:59:08.609Z,4.90
2022-10-07T06:01:37.766Z,4.60
2022-10-07T06:04:12.193Z,5.47
2022-10-07T06:06:42.064Z,6.00
2022-10-07T06:09:30.097Z,5.37
2022-10-07T06:12:17.968Z,4.87
2022-10-07T06:14:46.940Z,4.70
2022-10-07T06:17:14.268Z,5.73
2022-10-07T06:19:43.309Z,5.70
2022-10-07T06:22:11.163Z,4.70
2022-10-07T06:24:40.114Z,4.97
2022-10-07T06:27:07.653Z,5.60
2022-10-07T06:29:36.362Z,5.70
2022-10-07T06:32:03.726Z,5.60
2022-10-07T06:34:31.854Z,6.67
2022-10-07T06:36:59.499Z,5.17
2022-10-07T06:39:27.172Z,5.03
2022-10-07T06:41:57.140Z,5.90
2022-10-07T06:44:43.088Z,5.90
2022-10-07T06:47:13.605Z,5.33
2022-10-07T06:49:43.056Z,5.00
2022-10-07T06:52:11.029Z,5.53
2022-10-07T06:54:38.426Z,6.00
2022-10-07T06:57:26.313Z,5.30
2022-10-07T06:59:55.000Z,6.40
2022-10-07T07:02:25.035Z,4.97
2022-10-07T07:04:57.694Z,4.97
2022-10-07T07:07:26.107Z,5.03
2022-10-07T07:09:53.714Z,5.30
2022-10-07T07:12:25.177Z,3.50
2022-10-07T07:14:53.399Z,4.47
2022-10-07T07:17:21.794Z,6.70
2022-10-07T07:19:49.123Z,5.77
2022-10-07T07:22:17.572Z,5.17
2022-10-07T07:24:44.932Z,4.60
2022-10-07T07:27:14.559Z,4.47
2022-10-07T07:29:43.604Z,10.40
2022-10-07T07:32:11.876Z,5.37
2022-10-07T07:34:42.555Z,5.17
2022-10-07T07:37:14.065Z,4.50
2022-10-07T07:39:46.570Z,4.80
2022-10-07T07:42:16.799Z,4.93
2022-10-07T07:44:44.195Z,4.40
2022-10-07T07:47:18.437Z,3.77
2022-10-07T07:49:48.500Z,3.00
2022-10-07T07:52:25.313Z,4.23
2022-10-07T07:54:57.878Z,3.50
2022-10-07T07:57:26.968Z,3.33
2022-10-07T07:59:55.157Z,3.73
2022-10-07T08:02:23.523Z,2.57
2022-10-07T08:04:51.989Z,2.53
2022-10-07T08:07:20.011Z,3.10
2022-10-07T08:09:49.770Z,3.00
2022-10-07T08:12:17.612Z,2.50
2022-10-07T08:14:45.878Z,2.73
2022-10-07T08:17:13.935Z,3.53
2022-10-07T08:19:41.450Z,2.80
2022-10-07T08:22:09.534Z,3.43
2022-10-07T08:24:37.695Z,2.80
2022-10-07T08:27:05.127Z,2.33
2022-10-07T08:29:32.484Z,3.60
2022-10-07T08:31:59.969Z,3.60
2022-10-07T08:34:27.371Z,2.50
2022-10-07T08:36:56.162Z,2.50
2022-10-07T08:39:24.663Z,2.00
2022-10-07T08:41:58.113Z,2.23
2022-10-07T08:44:35.960Z,2.20
2022-10-07T08:47:17.470Z,2.37
2022-10-07T08:50:23.891Z,1.90
2022-10-07T08:52:55.913Z,2.90
2022-10-07T08:55:45.749Z,2.30
2022-10-07T08:58:25.079Z,2.20
2022-10-07T09:01:19.174Z,1.97
2022-10-07T09:03:55.588Z,2.90
2022-10-07T09:06:37.181Z,2.10
2022-10-07T09:09:17.792Z,2.20
2022-10-07T09:11:46.926Z,2.10
2022-10-07T09:14:34.232Z,1.70
2022-10-07T09:17:13.427Z,1.40
2022-10-07T09:19:47.223Z,2.30
2022-10-07T09:22:25.268Z,2.33
2022-10-07T09:24:59.045Z,2.40
2022-10-07T09:27:26.725Z,2.20
2022-10-07T09:29:54.048Z,2.17
2022-10-07T09:32:21.433Z,1.80
2022-10-07T09:34:48.796Z,1.57
2022-10-07T09:37:23.199Z,1.80
2022-10-07T09:39:53.230Z,2.17
2022-10-07T09:42:37.401Z,2.00
2022-10-07T09:45:32.727Z,2.27
2022-10-07T09:48:07.107Z,2.27
2022-10-07T09:50:42.069Z,2.70
2022-10-07T09:53:19.770Z,1.80
2022-10-07T09:55:47.473Z,2.20
2022-10-07T09:58:19.372Z,2.80
2022-10-07T10:00:49.688Z,2.70
2022-10-07T10:03:18.253Z,2.30
2022-10-07T10:05:51.831Z,2.43
2022-10-07T10:08:19.082Z,2.10
2022-10-07T10:10:58.154Z,3.33
2022-10-07T10:13:36.673Z,1.93
2022-10-07T10:16:05.995Z,1.87
2022-10-07T10:18:34.780Z,1.70
2022-10-07T10:21:20.768Z,1.93
2022-10-07T10:23:52.540Z,2.13
2022-10-07T10:26:44.632Z,2.00
2022-10-07T10:29:32.172Z,2.37
2022-10-07T10:32:02.222Z,1.97
2022-10-07T10:34:42.212Z,1.57
2022-10-07T10:37:21.339Z,2.20
2022-10-07T10:40:15.289Z,1.93
2022-10-07T10:43:12.506Z,2.00
2022-10-07T10:46:00.614Z,1.90
2022-10-07T10:48:44.119Z,2.00
2022-10-07T10:51:45.244Z,1.93
2022-10-07T10:54:43.217Z,2.40
2022-10-07T10:57:37.786Z,2.50
2022-10-07T11:00:24.225Z,2.17
2022-10-07T11:03:07.844Z,2.63
2022-10-07T11:05:37.979Z,2.10
2022-10-07T11:08:27.448Z,2.30
2022-10-07T11:11:12.147Z,2.80
2022-10-07T11:14:10.410Z,2.53
2022-10-07T11:16:47.738Z,1.90
2022-10-07T11:19:22.536Z,2.20
2022-10-07T11:21:50.704Z,2.80
2022-10-07T11:24:40.702Z,2.03
2022-10-07T11:27:24.107Z,2.17
2022-10-07T11:29:57.632Z,2.53
2022-10-07T11:32:57.478Z,2.40
2022-10-07T11:35:44.801Z,2.30
2022-10-07T11:38:14.782Z,2.83
2022-10-07T11:40:46.288Z,2.77
2022-10-07T11:43:25.495Z,3.43
2022-10-07T11:46:00.382Z,2.90
2022-10-07T11:48:49.085Z,2.00
2022-10-07T11:51:22.984Z,2.77
2022-10-07T11:53:54.296Z,2.50
2022-10-07T11:56:26.872Z,2.90
2022-10-07T11:59:37.330Z,2.70
2022-10-07T12:02:15.861Z,2.63
2022-10-07T12:04:43.238Z,1.77
2022-10-07T12:07:32.457Z,2.77
2022-10-07T12:10:03.281Z,3.00
2022-10-07T12:12:46.275Z,2.93
2022-10-07T12:15:34.419Z,2.63
2022-10-07T12:18:10.604Z,3.30
2022-10-07T12:20:50.195Z,3.27
2022-10-07T12:23:23.296Z,2.40
2022-10-07T12:26:05.328Z,2.87
2022-10-07T12:28:47.279Z,3.43
2022-10-07T12:31:18.637Z,3.30
2022-10-07T12:33:46.054Z,3.90
2022-10-07T12:36:22.086Z,4.20
2022-10-07T12:38:59.179Z,3.10
2022-10-07T12:41:39.949Z,3.83
2022-10-07T12:44:35.141Z,4.50
2022-10-07T12:47:22.697Z,3.40
2022-10-07T12:49:58.974Z,3.57
2022-10-07T12:52:32.345Z,4.70
2022-10-07T12:55:09.288Z,3.80
2022-10-07T12:57:38.578Z,4.50
2022-10-07T13:00:10.519Z,3.70
2022-10-07T13:02:58.983Z,4.50
2022-10-07T13:05:45.234Z,3.50
2022-10-07T13:08:37.328Z,5.50
2022-10-07T13:11:47.503Z,3.20
2022-10-07T13:14:20.976Z,3.90
2022-10-07T13:16:51.369Z,4.73
2022-10-07T13:19:18.632Z,5.70
2022-10-07T13:21:46.874Z,4.23
2022-10-07T13:24:23.412Z,4.73
2022-10-07T13:26:51.739Z,4.40
2022-10-07T13:29:39.384Z,4.93
2022-10-07T13:32:18.182Z,4.90
2022-10-07T13:34:46.370Z,5.13
2022-10-07T13:37:35.419Z,4.13
2022-10-07T13:40:22.546Z,5.20
2022-10-07T13:42:59.082Z,4.47
2022-10-07T13:45:27.827Z,4.80
2022-10-07T13:47:57.602Z,5.47
2022-10-07T13:50:27.248Z,4.87
2022-10-07T13:52:55.962Z,4.73
2022-10-07T13:55:29.714Z,5.37
2022-10-07T13:58:00.586Z,5.20
2022-10-07T14:00:29.273Z,4.40
2022-10-07T14:02:56.802Z,5.50
2022-10-07T14:05:27.692Z,4.30
2022-10-07T14:07:58.109Z,4.30
2022-10-07T14:10:27.619Z,4.60
2022-10-07T14:13:00.396Z,5.60
2022-10-07T14:15:30.215Z,5.73
2022-10-07T14:18:13.233Z,5.10
2022-10-07T14:20:43.759Z,5.40
2022-10-07T14:23:33.765Z,4.97
2022-10-07T14:26:06.508Z,5.00
2022-10-07T14:28:35.973Z,4.27
2022-10-07T14:31:39.745Z,4.10
2022-10-07T14:34:37.811Z,5.10
2022-10-07T14:37:16.980Z,5.50
2022-10-07T14:39:48.711Z,4.80
2022-10-07T14:42:23.344Z,5.33
2022-10-07T14:44:51.784Z,4.00
2022-10-07T14:47:21.168Z,4.47
2022-10-07T14:49:48.925Z,5.67
2022-10-07T14:52:42.165Z,5.30
2022-10-07T14:55:26.382Z,4.77
2022-10-07T14:57:54.587Z,5.33
2022-10-07T15:00:29.272Z,4.97
2022-10-07T15:02:58.816Z,5.10
2022-10-07T15:05:33.639Z,5.00
2022-10-07T15:08:01.782Z,5.40
2022-10-07T15:10:29.099Z,5.43
2022-10-07T15:12:56.802Z,5.80
2022-10-07T15:15:24.209Z,4.97
2022-10-07T15:17:51.645Z,5.03
2022-10-07T15:20:19.499Z,5.13
2022-10-07T15:22:47.159Z,5.37
2022-10-07T15:25:15.257Z,6.00
2022-10-07T15:27:44.309Z,5.40
2022-10-07T15:30:12.465Z,5.03
2022-10-07T15:32:41.545Z,5.07
2022-10-07T15:35:10.045Z,5.57
2022-10-07T15:37:37.913Z,5.57
2022-10-07T15:40:07.527Z,6.10
2022-10-07T15:42:34.878Z,5.13
2022-10-07T15:45:02.246Z,4.57
2022-10-07T15:47:33.353Z,4.90
2022-10-07T15:50:01.099Z,5.13
2022-10-07T15:52:28.789Z,3.97
2022-10-07T15:54:56.582Z,5.30
2022-10-07T15:57:24.465Z,5.00
2022-10-07T15:59:54.683Z,5.07
2022-10-07T16:02:22.396Z,4.53
2022-10-07T16:04:49.750Z,5.00
2022-10-07T16:07:17.177Z,6.20
2022-10-07T16:09:44.466Z,6.40
2022-10-07T16:12:13.205Z,5.47
2022-10-07T16:14:40.583Z,5.73
2022-10-07T16:17:08.290Z,5.80
2022-10-07T16:19:35.656Z,5.33
2022-10-07T16:22:03.807Z,5.87
2022-10-07T16:24:35.311Z,5.20
2022-10-07T16:27:03.254Z,4.77
2022-10-07T16:29:49.133Z,5.03
2022-10-07T16:32:16.507Z,5.70
2022-10-07T16:34:44.832Z,5.50
2022-10-07T16:37:12.615Z,5.43
2022-10-07T16:39:40.057Z,5.17
2022-10-07T16:42:07.509Z,5.10
2022-10-07T16:44:35.330Z,4.50
2022-10-07T16:47:02.997Z,5.87
2022-10-07T16:49:30.542Z,4.77
2022-10-07T16:51:58.091Z,5.97
2022-10-07T16:54:25.853Z,5.00
2022-10-07T16:56:53.425Z,4.87
2022-10-07T16:59:24.190Z,6.40
2022-10-07T17:01:55.603Z,4.90
2022-10-07T17:04:24.607Z,4.63
2022-10-07T17:06:52.488Z,5.13
2022-10-07T17:09:19.954Z,6.07
2022-10-07T17:11:47.575Z,6.20
2022-10-07T17:14:17.241Z,6.17
2022-10-07T17:16:46.770Z,6.07
2022-10-07T17:19:19.585Z,5.87
2022-10-07T17:21:48.178Z,5.60
2022-10-07T17:24:16.788Z,6.17
2022-10-07T17:26:44.767Z,5.43
2022-10-07T17:29:13.988Z,5.90
2022-10-07T17:31:43.073Z,6.17
2022-10-07T17:34:11.848Z,6.77
2022-10-07T17:36:39.773Z,6.13
2022-10-07T17:39:07.551Z,5.50
2022-10-07T17:41:36.905Z,6.50
2022-10-07T17:44:09.215Z,7.27
2022-10-07T17:46:39.000Z,5.97
2022-10-07T17:49:08.621Z,5.87
2022-10-07T17:51:37.255Z,7.23
2022-10-07T17:54:05.842Z,8.10
2022-10-07T17:56:34.170Z,8.60
2022-10-07T17:59:01.924Z,7.23
2022-10-07T18:01:31.871Z,8.50
2022-10-07T18:04:07.757Z,7.17
2022-10-07T18:06:36.715Z,12.07
2022-10-07T18:09:12.729Z,8.73
2022-10-07T18:11:59.004Z,7.70
2022-10-07T18:14:46.134Z,11.70
2022-10-07T18:17:15.110Z,8.67
2022-10-07T18:19:42.548Z,9.90
2022-10-07T18:22:10.044Z,10.00
2022-10-07T18:24:37.465Z,9.90
2022-10-07T18:27:04.833Z,10.17
2022-10-07T18:29:34.241Z,13.80
2022-10-07T18:32:01.968Z,10.67
2022-10-07T18:34:29.554Z,11.17
2022-10-07T18:36:57.429Z,10.87
2022-10-07T18:39:29.361Z,9.20
2022-10-07T18:41:57.332Z,12.80
2022-10-07T18:44:24.641Z,11.23
2022-10-07T18:46:52.182Z,9.33
2022-10-07T18:49:19.597Z,8.97
2022-10-07T18:51:47.295Z,9.40
2022-10-07T18:54:14.793Z,10.07
2022-10-07T18:56:42.189Z,10.20
2022-10-07T18:59:12.945Z,11.30
2022-10-07T19:01:40.836Z,9.60
2022-10-07T19:04:08.666Z,10.80
2022-10-07T19:06:38.315Z,11.50
2022-10-07T19:09:08.143Z,10.60
2022-10-07T19:11:35.772Z,11.10
2022-10-07T19:14:03.068Z,10.80
2022-10-07T19:16:35.543Z,11.00
2022-10-07T19:19:08.378Z,10.43
2022-10-07T19:21:36.041Z,10.10
2022-10-07T19:24:04.463Z,9.27
2022-10-07T19:26:37.425Z,11.20
2022-10-07T19:29:06.455Z,9.90
2022-10-07T19:31:36.103Z,8.67
2022-10-07T19:34:20.424Z,8.37
2022-10-07T19:36:48.493Z,11.20
2022-10-07T19:39:20.981Z,15.23
2022-10-07T19:41:48.609Z,13.60
2022-10-07T19:44:16.494Z,12.13
2022-10-07T19:46:44.248Z,11.63
2022-10-07T19:49:12.429Z,10.33
2022-10-07T19:51:40.483Z,9.87
2022-10-07T19:54:12.882Z,12.00
2022-10-07T19:56:41.009Z,7.33
2022-10-07T19:59:10.839Z,8.90
2022-10-07T20:01:43.509Z,11.20
2022-10-07T20:04:13.826Z,10.90
2022-10-07T20:06:41.758Z,11.47
2022-10-07T20:09:11.595Z,11.20
2022-10-07T20:11:39.023Z,12.67
2022-10-07T20:14:06.615Z,14.40
2022-10-07T20:16:34.935Z,11.17
2022-10-07T20:19:05.786Z,10.20
2022-10-07T20:21:36.456Z,8.13
2022-10-07T20:24:05.190Z,7.83
2022-10-07T20:26:34.721Z,8.90
2022-10-07T20:29:03.835Z,9.47
2022-10-07T20:31:34.922Z,14.83
2022-10-07T20:34:03.117Z,14.70
2022-10-07T20:36:34.484Z,12.50
2022-10-07T20:39:26.295Z,10.93
2022-10-07T20:42:12.736Z,9.67
2022-10-07T20:44:39.951Z,10.37
2022-10-07T20:47:09.624Z,11.27
2022-10-07T20:49:38.791Z,9.57
2022-10-07T20:52:18.749Z,9.03
2022-10-07T20:54:47.401Z,10.07
2022-10-07T20:57:18.354Z,9.50
2022-10-07T20:59:45.472Z,9.50
2022-10-07T21:02:14.387Z,9.93
2022-10-07T21:04:41.737Z,10.00
2022-10-07T21:07:09.482Z,9.00
2022-10-07T21:09:36.834Z,8.90
2022-10-07T21:12:11.189Z,8.77
2022-10-07T21:14:38.502Z,8.47
2022-10-07T21:17:06.946Z,8.70
2022-10-07T21:19:37.830Z,8.23
2022-10-07T21:22:06.433Z,8.20
2022-10-07T21:24:36.706Z,9.13
2022-10-07T21:27:06.714Z,8.83
2022-10-07T21:29:38.967Z,10.23
2022-10-07T21:32:09.339Z,6.67
2022-10-07T21:34:36.811Z,5.90
2022-10-07T21:37:04.792Z,7.30
2022-10-07T21:39:32.245Z,7.50
2022-10-07T21:41:59.806Z,8.47
2022-10-07T21:44:27.569Z,7.13
2022-10-07T21:46:54.578Z,7.27
2022-10-07T21:49:21.576Z,7.90
2022-10-07T21:51:48.502Z,7.30
2022-10-07T21:54:15.768Z,8.20
2022-10-07T21:56:45.829Z,10.63
2022-10-07T21:59:14.284Z,8.43
2022-10-07T22:01:42.659Z,7.87
2022-10-07T22:04:17.216Z,9.03
2022-10-07T22:07:03.596Z,12.30
2022-10-07T22:09:31.313Z,14.57
2022-10-07T22:11:58.529Z,12.90
2022-10-07T22:14:25.529Z,11.57
2022-10-07T22:16:52.453Z,8.90
2022-10-07T22:19:19.361Z,9.83
2022-10-07T22:21:46.273Z,9.87
2022-10-07T22:24:13.942Z,8.87
2022-10-07T22:26:45.885Z,8.53
2022-10-07T22:29:16.187Z,8.17
2022-10-07T22:31:43.842Z,7.70
2022-10-07T22:34:30.904Z,8.67
2022-10-07T22:36:58.143Z,8.10
2022-10-07T22:39:26.568Z,7.30
2022-10-07T22:41:53.890Z,9.20
2022-10-07T22:44:20.882Z,10.50
2022-10-07T22:46:48.050Z,7.80
2022-10-07T22:49:15.171Z,7.80
2022-10-07T22:51:43.032Z,7.90
2022-10-07T22:54:12.874Z,8.97
2022-10-07T22:56:40.365Z,8.80
2022-10-07T22:59:08.502Z,9.07
2022-10-07T23:01:36.611Z,8.17
2022-10-07T23:04:04.537Z,8.03
2022-10-07T23:06:34.418Z,8.57
2022-10-07T23:09:03.351Z,8.30
2022-10-07T23:11:31.573Z,7.00
2022-10-07T23:13:58.540Z,6.63
2022-10-07T23:16:29.688Z,7.67
2022-10-07T23:18:58.667Z,8.40
2022-10-07T23:21:33.540Z,7.50
2022-10-07T23:24:06.305Z,6.40
2022-10-07T23:26:34.446Z,7.60
2022-10-07T23:29:03.382Z,8.23
2022-10-07T23:31:32.046Z,8.17
2022-10-07T23:34:00.912Z,7.63
2022-10-07T23:36:29.330Z,7.00
2022-10-07T23:38:58.532Z,7.63
2022-10-07T23:41:28.559Z,7.50
2022-10-07T23:43:58.992Z,7.40
2022-10-07T23:46:27.198Z,8.57
2022-10-07T23:48:56.036Z,7.93
2022-10-07T23:51:26.122Z,7.53
2022-10-07T23:53:53.682Z,7.93
2022-10-07T23:56:20.633Z,8.57
2022-10-07T23:58:47.696Z,8.50
